Haverford, PA (19041)

2:06 PM EST on February 01, 2015 (GMT -0500)
Gladwyne | Change Station
CLOSE
Current Station
Personal Weather Station
Location: Gladwyne, PA
Elevation: 397 ft
Nearby Weather Stations
Active Advisory: Winter Weather Advisory

Elev 397 ft 40.04 °N, 75.29 °W | Updated 7 seconds ago

Overcast
Overcast
35.9 °F
Feels Like 36 °F
N
0.0
Wind Variable Wind from SW
Gusts 7.0 mph

Today
High -- | Low -- °F
--% Chance of Precip.
Yesterday
High -- | Low -- °F
Precip. -- in
7:09 AM 5:20 PM
Waxing Gibbous, 96% visible
Pressure 30.15 in
Visibility 10.0 miles
Clouds Mostly Cloudy 5000 ft
Windchill 36 °F
Dew Point 24 °F
Humidity 64%
Rainfall 0.00 in
Snow Depth Not available.
UV 1 out of 12
Pollen .10 out of 12
Air Quality Not available.
Flu Activity Not available.
METAR KLOM 011855Z AUTO 00000KT 10SM BKN050 02/M03 A3015 RMK AO1

More Conditions Fewer Conditions

Pressure 30.15 in
Visibility 10.0 miles
Clouds Mostly Cloudy 5000 ft
Windchill 36 °F
Dew Point 24 °F
Humidity 64%
Rainfall 0.00 in
Snow Depth Not available.
UV 1 out of 12
Pollen .10 out of 12
Air Quality Not available.
Flu Activity Not available.
METAR KLOM 011855Z AUTO 00000KT 10SM BKN050 02/M03 A3015 RMK AO1

More Conditions Fewer Conditions

10-Day Weather Forecast

Almanac

Astronomy

Feb. 01, 2015 Rise Set
Actual Time
Civil Twilight
Nautical Twilight
Astronomical Twilight
Moon
Length of Visible Light
Length of Day
Tomorrow will be .
, % of the Moon is Illuminated

Today's Extremes

State Highs State Lows

Community

WunderPhotos

Upload Photos

1,792,448 photos uploaded!

WunderBlogs® & News

Nearby

Air Quality

  Air Quality AQ Index Pollutant
Not available.

Snow Depth

Station Depth Elevation

Earthquake Activity

City Distance Mag. Time & Date
Minimum magnitude displayed is 2.5.

Coastal Water Temperatures

Place Temperature

Nearby Weather Stations